Reportages photos

Inscriptions en ligne

Connexion

10Km

10 Km La Passe Pierre du 25/05/17 (Reelle 10)
Rang Dossard Nom Prénom Temps Cat Rang Cat Ecart Ecart Cat Club Vitesse Km/h Temps au Km
1 176 RAMET benoit 00:41:32 SEM 1 00:00:00 00:00:00 TOUQUET OPALE ATHLETISME 14,446 04:09
2 313 SAISON Antoine 00:42:31 ESM 1 00:00:59 00:00:00 Triathlon club Montreuil 14,112 04:15
3 359 THIBAULT Nicolas 00:43:25 SEM 2 00:01:53 00:01:53 TOUQUET OPALE ATHLETISME 13,820 04:20
4 294 RIMBAULT Stevens 00:43:35 SEM 3 00:02:03 00:02:03 TOUQUET OPALE ATHLETISME 13,767 04:22
5 353 CALOIN Mathieu 00:45:10 SEM 4 00:03:38 00:03:38 - 13,284 04:31
6 279 DELEHAYE Antonin 00:45:20 JUM 1 00:03:48 00:00:00 SERVINS ATHLETIC CLUB 13,235 04:32
7 103 JAMET CLEMENT 00:46:06 ESM 2 00:04:34 00:03:35 CPB RENNES 13,015 04:37
8 90 PICARD jeremie 00:46:11 SEM 5 00:04:39 00:04:39 - 12,992 04:37
9 255 PRUVOT romain 00:46:14 SEM 6 00:04:42 00:04:42 TOUQUET OPALE ATHLETISME 12,978 04:37
10 39 EVRARD Gael 00:46:22 SEM 7 00:04:50 00:04:50 TOUQUET OPALE ATHLETISME 12,940 04:38
11 235 BOUTIN julien 00:47:32 SEM 8 00:06:00 00:06:00 RC ARRAS* 12,623 04:45
12 22 FLEURU Laurent 00:47:46 SEM 9 00:06:14 00:06:14 Run In Maroilles 12,561 04:47
13 23 DEMARET Cédric 00:47:46 SEM 10 00:06:14 00:06:14 Run In Maroilles 12,561 04:47
14 237 MACKE Sylvain 00:47:56 V1M 1 00:06:24 00:00:00 - 12,517 04:48
15 368 VANSTRAZEELE MATHIEU 00:48:06 SEM 11 00:06:34 00:06:34 ATHLETISME CLUB OUTREAU 12,474 04:49
16 306 DEVOLDER Jean-Bernard 00:48:33 V1M 2 00:07:01 00:00:37 - 12,358 04:51
17 52 DUCLOY MARTIN 00:48:39 ESM 3 00:07:07 00:06:08 - 12,333 04:52
18 45 BAHEUX marc antoine 00:48:57 SEM 12 00:07:25 00:07:25 - 12,257 04:54
19 366 DELFORGE Antoine 00:49:02 SEM 13 00:07:30 00:07:30 - 12,237 04:54
20 105 JAMET Loïc 00:49:28 SEM 14 00:07:56 00:07:56 - 12,129 04:57
21 309 FOURDINIER Paul 00:49:54 SEM 15 00:08:22 00:08:22 - 12,024 04:59
22 350 LAMOUR laurent 00:50:03 V1M 3 00:08:31 00:02:07 REDRUN 11,988 05:00
23 170 CATTEAU Matthieu 00:50:13 SEM 16 00:08:41 00:08:41 - 11,948 05:01
24 285 MORTIER PIERRE-LOUIS 00:50:19 CAM 1 00:08:47 00:00:00 - 11,924 05:02
25 232 MATHIEU Guillaume 00:50:22 SEM 17 00:08:50 00:08:50 - 11,913 05:02
26 145 DHUVETTERE jeremy 00:51:29 SEM 18 00:09:57 00:09:57 - 11,654 05:09
27 273 CARPENTIER Benjamin 00:51:39 SEM 19 00:10:07 00:10:07 BERCK ATHLETISME COTE D'OPALE 11,617 05:10
28 139 VANDEKERKHOVE AURELIEN 00:51:57 SEM 20 00:10:25 00:10:25 - 11,550 05:12
29 333 FLAHAUT CYRIL 00:52:03 SEM 21 00:10:31 00:10:31 - 11,527 05:12
30 44 POUPART Nicolas 00:52:07 SEM 22 00:10:35 00:10:35 - 11,513 05:13
31 257 GOSSELIN Nelson 00:52:19 JUM 2 00:10:47 00:06:59 - 11,469 05:14
32 270 DELAMOTTE guillaume 00:52:21 SEM 23 00:10:49 00:10:49 AMICALE NEUFCHATEL ATHLETISME 11,461 05:14
33 98 THUILLIER renaud 00:52:30 SEM 24 00:10:58 00:10:58 TOUQUET OPALE ATHLETISME 11,429 05:15
34 331 GOSSELIN stephane 00:52:38 V1M 4 00:11:06 00:04:42 - 11,400 05:16
35 250 DUBOIS Delphine 00:52:38 SEF 1 00:11:06 00:00:00 FC LAON 11,400 05:16
36 75 REGNIER Jérémie 00:53:00 SEM 25 00:11:28 00:11:28 - 11,321 05:18
37 290 PERRAULT Sébastien 00:53:11 SEM 26 00:11:39 00:11:39 - 11,282 05:19
38 318 DELCLOY olivier 00:53:17 V1M 5 00:11:45 00:05:21 - 11,261 05:20
39 222 DUVAL loic 00:53:38 SEM 27 00:12:06 00:12:06 TOUQUET OPALE ATHLETISME 11,187 05:22
40 370 LIPKA Xavier 00:53:50 SEM 28 00:12:18 00:12:18 ATHLETISME CLUB OUTREAU 11,146 05:23
41 275 PARMENTIER Sébastien 00:54:01 SEM 29 00:12:29 00:12:29 - 11,108 05:24
42 308 BOUTOILLE lionel 00:54:06 V1M 6 00:12:34 00:06:10 - 11,091 05:25
43 299 GUILLUY pierre antoine 00:54:09 SEM 30 00:12:37 00:12:37 - 11,080 05:25
44 146 SALON Pierre 00:54:12 ESM 4 00:12:40 00:11:41 - 11,070 05:25
45 95 CODRON jérôme 00:54:24 V1M 7 00:12:52 00:06:28 - 11,029 05:26
46 177 DAVID ANTHONY 00:54:33 SEM 31 00:13:01 00:13:01 AMIENS UC 10,999 05:27
47 21 BRIHIER nicolas 00:54:35 V1M 8 00:13:03 00:06:39 - 10,992 05:28
48 261 DERAMECOURT Emmanuel 00:54:43 V1M 9 00:13:11 00:06:47 LILLE RUNNING TEAM 10,966 05:28
49 29 LAMPAERT JEAN-CHARLES 00:54:43 V2M 1 00:13:11 00:00:00 ESPRIT RUN 10,966 05:28
50 159 KUBACKI Florian 00:54:44 SEM 32 00:13:12 00:13:12 - 10,962 05:28
51 292 TOULLET paul 00:54:56 SEM 33 00:13:24 00:13:24 - 10,922 05:30
52 49 HENNUYER christian 00:54:57 SEM 34 00:13:25 00:13:25 Team tiunfou 10,919 05:30
53 149 CALON Christophe 00:55:05 SEM 35 00:13:33 00:13:33 SA MONTROUGE PARIS 12 10,893 05:31
54 187 LEFEBVRE Mathieu 00:55:09 V1M 10 00:13:37 00:07:13 ATHLETIC CLUB DES 4 VENTS ACHI 10,879 05:31
55 198 LELIEVRE Clea 00:55:20 CAF 1 00:13:48 00:00:00 Triathlon club Montreuil 10,843 05:32
56 32 VASSEUR ludovic 00:55:20 SEM 36 00:13:48 00:13:48 - 10,843 05:32
57 151 LANQUETOT Thibault 00:55:21 SEM 37 00:13:49 00:13:49 - 10,840 05:32
58 202 MARGOLLÉ olivier 00:55:59 SEM 38 00:14:27 00:14:27 - 10,717 05:36
59 320 VASSEUR rémy 00:56:17 SEM 39 00:14:45 00:14:45 bourthes running 10,660 05:38
60 248 SEILLIER pierre 00:56:18 SEM 40 00:14:46 00:14:46 - 10,657 05:38
61 66 HORAK stéphane 00:56:34 V1M 11 00:15:02 00:08:38 RIO TINTO 10,607 05:39
62 169 BECQUELIN Théo 00:56:41 ESM 5 00:15:09 00:14:10 - 10,585 05:40
63 227 BRUMENT Marion 00:56:50 SEF 2 00:15:18 00:04:12 TOUQUET OPALE ATHLETISME 10,557 05:41
64 351 GUERVILLE maxime 00:56:55 SEM 41 00:15:23 00:15:23 TOUQUET OPALE ATHLETISME 10,542 05:41
65 190 LEFEBVRE Serge 00:57:21 V3M 1 00:15:49 00:00:00 COURIR ENSEMBLE SNCF LILLE 10,462 05:44
66 303 HURON Jean Claude 00:57:34 V3M 2 00:16:02 00:00:13 - 10,423 05:45
67 171 BASSEZ Guillaume 00:57:53 SEM 42 00:16:21 00:16:21 triathlon club du montreuillois 10,366 05:47
68 364 DESHAYES jean christophe 00:57:59 V2M 2 00:16:27 00:03:16 - 10,348 05:48
69 114 LOTH Nicolas 00:58:01 SEM 43 00:16:29 00:16:29 - 10,342 05:48
70 155 BETRANCOURT ARNAUD 00:58:02 V1M 12 00:16:30 00:10:06 - 10,339 05:48
71 336 PRUVOT Romain 00:58:11 SEM 44 00:16:39 00:16:39 - 10,312 05:49
72 172 MACKE Nicolas 00:58:18 V1M 13 00:16:46 00:10:22 - 10,292 05:50
73 173 FLORIN francois 00:58:21 SEM 45 00:16:49 00:16:49 - 10,283 05:50
74 233 HORNOY Frédéric 00:58:27 V1M 14 00:16:55 00:10:31 - 10,265 05:51
75 50 FASQUEL Vincent 00:58:29 SEM 46 00:16:57 00:16:57 Team tiunfou 10,259 05:51
76 19 CALOIN Martin 00:58:33 SEM 47 00:17:01 00:17:01 moto club canche authie 10,248 05:51
77 63 BOURRÉ Simon 00:58:34 SEM 48 00:17:02 00:17:02 Asso Corps&Âmes 10,245 05:51
78 231 PETIT Benoit 00:58:39 CAM 2 00:17:07 00:08:20 Triathlon club Montreuil 10,230 05:52
79 228 GRIMONPONT gilles 00:58:52 V2M 3 00:17:20 00:04:09 - 10,193 05:53
80 34 GEOFFROY Hélène 00:58:53 SEF 3 00:17:21 00:06:15 Run In Maroilles 10,190 05:53
81 79 DAVID martin 00:58:57 SEM 49 00:17:25 00:17:25 - 10,178 05:54
82 263 DEWASTE Thomas 00:59:03 JUM 3 00:17:31 00:13:43 ckmvbdp 10,161 05:54
83 322 GRUYEZ Etienne 00:59:04 V1M 15 00:17:32 00:11:08 JOGGING AVENTURE RONCQUOISE 10,158 05:54
84 258 SABIN James 00:59:27 JUM 4 00:17:55 00:14:07 - 10,093 05:57
85 24 VANDENBROUCKE Guillaume 00:59:34 SEM 50 00:18:02 00:18:02 - 10,073 05:57
86 200 COEUGNIET NATHAN 00:59:37 CAM 3 00:18:05 00:09:18 - 10,064 05:58
87 85 CAILLET Alexandre 00:59:53 SEM 51 00:18:21 00:18:21 TOUQUET OPALE ATHLETISME 10,019 05:59
88 244 PICHONNIER nicolas 01:00:09 V1M 16 00:18:37 00:12:13 - 9,975 06:01
89 266 HAGNERÉ Loris 01:00:16 ESM 6 00:18:44 00:17:45 - 9,956 06:02
90 352 VASSEUR Mathieu 01:00:32 SEM 52 00:19:00 00:19:00 - 9,912 06:03
91 130 LESAGE LUDOVIC 01:00:33 V1M 17 00:19:01 00:12:37 SE PAVILLON SOUS BOIS 9,909 06:03
92 117 PLUQUET FLORENT 01:00:43 SEM 53 00:19:11 00:19:11 - 9,882 06:04
93 182 WITTEVRONGEL Dieter 01:00:48 SEM 54 00:19:16 00:19:16 - 9,868 06:05
94 3 LAPORTE PHILIPPE 01:00:51 SEM 55 00:19:19 00:19:19 SP FLIXECOURT 9,860 06:05
95 160 BATAILLE Jeff 01:00:52 SEM 56 00:19:20 00:19:20 - 9,858 06:05
96 240 DEROUSSEN Aurélie 01:00:58 V1F 1 00:19:26 00:00:00 - 9,841 06:06
97 264 DEHAY Eric 01:00:58 V1M 18 00:19:26 00:13:02 - 9,841 06:06
98 245 FALAMPIN Bruno 01:01:02 SEM 57 00:19:30 00:19:30 - 9,831 06:06
99 185 DEROO Renaud 01:01:03 SEM 58 00:19:31 00:19:31 - 9,828 06:06
100 371 HEMBERT Laurent 01:01:04 V1M 19 00:19:32 00:13:08 DRUCAT TOUTES JAMBES 9,825 06:06
101 218 DOUILLET MAXIME 01:01:04 SEM 59 00:19:32 00:19:32 - 9,825 06:06
102 332 GOSSELIN samuel 01:01:12 V1M 20 00:19:40 00:13:16 - 9,804 06:07
103 251 CAILLET STEPHANE 01:01:19 V2M 4 00:19:47 00:06:36 - 9,785 06:08
104 311 FRUITIER KEVIN 01:01:24 SEM 60 00:19:52 00:19:52 COURIR A ABBEVILLE 9,772 06:08
105 99 RAMET guillaume 01:01:30 JUM 5 00:19:58 00:16:10 TOUQUET OPALE ATHLETISME 9,756 06:09
106 345 COEVOET alice 01:01:30 SEF 4 00:19:58 00:08:52 - 9,756 06:09
107 337 CHAKER Mickael 01:01:34 V1M 21 00:20:02 00:13:38 - 9,746 06:09
108 363 BELLEMBOIS kevin 01:01:36 SEM 61 00:20:04 00:20:04 - 9,740 06:10
109 168 PECQUEUX MATTHIEU 01:01:36 SEM 62 00:20:04 00:20:04 - 9,740 06:10
110 152 FAIT Jérôme 01:01:41 SEM 63 00:20:09 00:20:09 - 9,727 06:10
111 301 CHOTEAU antoine 01:01:44 SEM 64 00:20:12 00:20:12 - 9,719 06:10
112 295 HAGNERE Damien 01:01:47 SEM 65 00:20:15 00:20:15 - 9,711 06:11
113 54 DENHEZ Simon 01:01:57 ESM 7 00:20:25 00:19:26 - 9,685 06:12
114 110 RINGART hortense 01:01:59 SEF 5 00:20:27 00:09:21 - 9,680 06:12
115 288 WAGRET DOMINIQUE 01:02:18 V1M 22 00:20:46 00:14:22 - 9,631 06:14
116 41 ALLARD Mathieu 01:02:22 SEM 66 00:20:50 00:20:50 - 9,621 06:14
117 115 LUC Herve 01:02:22 SEM 67 00:20:50 00:20:50 - 9,621 06:14
118 329 MOURGUES Régis 01:02:29 V1M 23 00:20:57 00:14:33 - 9,603 06:15
119 157 JOURDAIN Nicolas 01:02:31 V2M 5 00:20:59 00:07:48 - 9,597 06:15
120 40 CASTELAIN Jean Louis 01:02:31 V2M 6 00:20:59 00:07:48 Foulées Sainghinoises 9,597 06:15
121 156 PETIT Pierre-Marie 01:02:41 V1M 24 00:21:09 00:14:45 - 9,572 06:16
122 141 SALON patrick 01:02:49 V2M 7 00:21:17 00:08:06 calotterie 9,552 06:17
123 65 FABRE Bertrand 01:02:53 V2M 8 00:21:21 00:08:10 RIO TINTO 9,541 06:17
124 286 DUFOSSE PAUL 01:03:11 SEM 68 00:21:39 00:21:39 - 9,496 06:19
125 254 DUFOSSE CYRIL 01:03:11 V2M 9 00:21:39 00:08:28 - 9,496 06:19
126 31 BERNARD jimmy 01:03:23 SEM 69 00:21:51 00:21:51 - 9,466 06:20
127 87 AGARD MANUEL 01:03:42 SEM 70 00:22:10 00:22:10 TOUQUET OPALE ATHLETISME 9,419 06:22
128 100 FOUCAULT pascal 01:03:50 V2M 10 00:22:18 00:09:07 culture danse 9,399 06:23
129 174 FORTUMEAU DAVID 01:03:54 V1M 25 00:22:22 00:15:58 - 9,390 06:23
130 121 KAZMIERCZAK Pierre-Etienne 01:03:54 SEM 71 00:22:22 00:22:22 - 9,390 06:23
131 343 GUILLE PATRICK 01:03:59 V2M 11 00:22:27 00:09:16 - 9,377 06:24
132 201 COEUGNIET luc 01:04:02 V1M 26 00:22:30 00:16:06 - 9,370 06:24
133 27 DREVET Cyril 01:04:07 SEM 72 00:22:35 00:22:35 RUN IN MAROILLES 9,358 06:25
134 55 MAILLET Sébastien 01:04:10 SEM 73 00:22:38 00:22:38 - 9,351 06:25
135 256 LEPRETRE romuald 01:04:35 V1M 27 00:23:03 00:16:39 - 9,290 06:28
136 267 BILLARD Laudry 01:04:48 ESM 8 00:23:16 00:22:17 - 9,259 06:29
137 33 DESCHODT Marc-Henri 01:04:50 SEM 74 00:23:18 00:23:18 - 9,254 06:29
138 223 DUVAL stephane 01:04:58 V1M 28 00:23:26 00:17:02 TOUQUET OPALE ATHLETISME 9,236 06:30
139 317 DRUON Alexandre 01:05:04 SEM 75 00:23:32 00:23:32 - 9,221 06:30
140 283 PAPIN STEPHANE 01:05:07 V2M 12 00:23:35 00:10:24 LILLE RUNNING TEAM 9,214 06:31
141 234 MAHE Frédéric 01:05:19 SEM 76 00:23:47 00:23:47 Marquise athletisme 9,186 06:32
142 137 BERNARD Loup 01:05:20 JUM 6 00:23:48 00:20:00 - 9,184 06:32
143 104 WACOGNE Samuel 01:05:20 V1M 29 00:23:48 00:17:24 - 9,184 06:32
144 43 RAMET Matthieu 01:05:21 ESM 9 00:23:49 00:22:50 - 9,181 06:32
145 83 PETIT Christophe 01:05:22 V2M 13 00:23:50 00:10:39 - 9,179 06:32
146 61 MIONNET thomas 01:05:26 ESM 10 00:23:54 00:22:55 - 9,170 06:33
147 268 COULON Daniel 01:05:51 V2M 14 00:24:19 00:11:08 - 9,112 06:35
148 300 GUILLUY Nathalie 01:05:52 SEF 6 00:24:20 00:13:14 - 9,109 06:35
149 220 DUQUESNOY Clément 01:05:56 SEM 77 00:24:24 00:24:24 Phalempin Athlétique Club 9,100 06:36
150 197 BARBIEUX Serge 01:06:02 V2M 15 00:24:30 00:11:19 ARTOIS ATHLETISME* 9,086 06:36
151 217 ISAAC rudy 01:06:07 SEM 78 00:24:35 00:24:35 - 9,075 06:37
152 12 CASIMIR-FAVROT MAIA 01:06:16 CAF 2 00:24:44 00:10:56 STADE BRESTOIS * 9,054 06:38
153 11 FAVROT KARINE 01:06:18 V1F 2 00:24:46 00:05:20 - 9,050 06:38
154 241 BERTE Fabien 01:06:28 V1M 30 00:24:56 00:18:32 Judo Club Lomme 9,027 06:39
155 5 CARON romain 01:06:40 SEM 79 00:25:08 00:25:08 - 9,000 06:40
156 361 RAMET olivier 01:06:41 SEM 80 00:25:09 00:25:09 - 8,998 06:40
157 272 BAUDRIN Fabrice 01:06:50 V1M 31 00:25:18 00:18:54 La caloterie 8,978 06:41
158 373 BOURGAIN GUILLAUME 01:06:59 SEM 81 00:25:27 00:25:27 - 8,957 06:42
159 113 BAILLET thomas 01:07:03 SEM 82 00:25:31 00:25:31 - 8,949 06:42
160 18 FLASQUE Maxime 01:07:12 ESM 11 00:25:40 00:24:41 AS Etaples Tri 8,929 06:43
161 53 FLOHIC Marc 01:07:19 ESM 12 00:25:47 00:24:48 - 8,913 06:44
162 210 CALLEWAERT david 01:07:20 V1M 32 00:25:48 00:19:24 - 8,911 06:44
163 344 AMELIN Frédéric 01:07:22 SEM 83 00:25:50 00:25:50 - 8,906 06:44
164 154 CARON Baptiste 01:07:28 JUM 7 00:25:56 00:22:08 - 8,893 06:45
165 102 DELCOURT BENOIT 01:08:39 SEM 84 00:27:07 00:27:07 - 8,740 06:52
166 230 HERDIER Romain 01:08:50 SEM 85 00:27:18 00:27:18 - 8,717 06:53
167 138 JENNEQUIN magali 01:08:54 V1F 3 00:27:22 00:07:56 - 8,708 06:53
168 249 KOCAJ sophie 01:09:02 V1F 4 00:27:30 00:08:04 - 8,691 06:54
169 216 ALLANOU Guillaume 01:09:05 SEM 86 00:27:33 00:27:33 - 8,685 06:55
170 30 DOUBLECOURT claude 01:09:29 SEM 87 00:27:57 00:27:57 - 8,635 06:57
171 64 MEREAUX Pierre 01:09:45 SEM 88 00:28:13 00:28:13 - 8,602 06:58
172 120 DELAINE BENOIT 01:09:48 SEM 89 00:28:16 00:28:16 - 8,596 06:59
173 335 FLIGNY angélique 01:10:07 SEF 7 00:28:35 00:17:29 - 8,557 07:01
174 4 MARTEL DIDIER 01:10:07 V2M 16 00:28:35 00:15:24 - 8,557 07:01
175 260 MONFLIER Serge 01:10:10 V1M 33 00:28:38 00:22:14 - 8,551 07:01
176 189 HENRION Eric 01:10:30 V3M 3 00:28:58 00:13:09 COURIR ENSEMBLE SNCF LILLE 8,511 07:03
177 188 BROUCKE Didier 01:10:30 V3M 4 00:28:58 00:13:09 COURIR ENSEMBLE SNCF LILLE 8,511 07:03
178 118 HEBERT Jean-Marc 01:10:33 V3M 5 00:29:01 00:13:12 - 8,505 07:03
179 191 ROEGIERS Bruno 01:10:41 V3M 6 00:29:09 00:13:20 COURIR ENSEMBLE SNCF LILLE 8,489 07:04
180 81 DAVID edith 01:10:52 V2F 1 00:29:20 00:00:00 - 8,467 07:05
181 164 MARQUIZEAU Elina 01:10:52 V1F 5 00:29:20 00:09:54 ANDRESY ATHLETISME 8,467 07:05
182 225 CLERY nicolas 01:11:02 SEM 90 00:29:30 00:29:30 - 8,447 07:06
183 92 FAIT cassandre 01:11:05 SEF 8 00:29:33 00:18:27 - 8,441 07:07
184 214 OSSET romain 01:11:05 SEM 91 00:29:33 00:29:33 - 8,441 07:07
185 93 FAIT franck 01:11:05 V2M 17 00:29:33 00:16:22 - 8,441 07:07
186 293 LAMOUR frédéric 01:11:05 V1M 34 00:29:33 00:23:09 - 8,441 07:07
187 196 LEPRÊTRE Emmanuel 01:11:07 V1M 35 00:29:35 00:23:11 Los Mojitos 8,437 07:07
188 365 SAILLY Herve 01:11:07 V1M 36 00:29:35 00:23:11 - 8,437 07:07
189 236 GERMAIN Antoine 01:11:08 SEM 92 00:29:36 00:29:36 - 8,435 07:07
190 184 VANBELLE Arthur 01:11:25 SEM 93 00:29:53 00:29:53 - 8,401 07:09
191 203 BOMY Benjamin 01:11:26 SEM 94 00:29:54 00:29:54 - 8,399 07:09
192 316 MATHIAS Franck 01:11:38 V1M 37 00:30:06 00:23:42 - 8,376 07:10
193 9 VAN KALCK GAETAN 01:11:38 V1M 38 00:30:06 00:23:42 - 8,376 07:10
194 161 LEFEBVRE Willy 01:11:46 SEM 95 00:30:14 00:30:14 - 8,360 07:11
195 242 BILLIET Adrien 01:11:47 SEM 96 00:30:15 00:30:15 - 8,358 07:11
196 243 HUYNH Khiem 01:11:47 SEM 97 00:30:15 00:30:15 - 8,358 07:11
197 96 LIGNIER guillaume 01:11:59 SEM 98 00:30:27 00:30:27 - 8,335 07:12
198 142 LECOQ Gilles 01:12:01 SEM 99 00:30:29 00:30:29 - 8,331 07:12
199 284 BOISSIERE JACQUES 01:12:03 V4M 1 00:30:31 00:00:00 - 8,328 07:12
200 69 MONTEUUIS Dominique 01:12:04 V2M 18 00:30:32 00:17:21 RIO TINTO 8,326 07:12
201 162 DUHAMEL STEVE 01:12:06 SEM 100 00:30:34 00:30:34 - 8,322 07:13
202 319 BRIDENNE AGNES 01:12:12 V1F 6 00:30:40 00:11:14 - 8,310 07:13
203 94 BRABANT Sandrine 01:12:20 SEF 9 00:30:48 00:19:42 - 8,295 07:14
204 297 BRION Stéphane 01:12:35 V1M 39 00:31:03 00:24:39 - 8,266 07:15
205 109 FLASQUE mathieu 01:12:44 SEM 101 00:31:12 00:31:12 - 8,249 07:16
206 229 LOUCHART Arthur 01:12:47 ESM 13 00:31:15 00:30:16 - 8,244 07:17
207 328 ROBLIN Jeremy 01:13:05 SEM 102 00:31:33 00:31:33 Triathlon club boulonnais 8,210 07:18
208 327 ROBLIN Emilie 01:13:05 SEF 10 00:31:33 00:20:27 - 8,210 07:18
209 57 SARRAZIN ludovic 01:13:09 V1M 40 00:31:37 00:25:13 - 8,202 07:19
210 59 SARRAZIN Christophe 01:13:13 SEM 103 00:31:41 00:31:41 - 8,195 07:19
211 369 DAVID Bernard 01:13:14 V1M 41 00:31:42 00:25:18 ATHLETISME CLUB OUTREAU 8,193 07:19
212 112 FLASQUE rene 01:13:21 V2M 19 00:31:49 00:18:38 - 8,180 07:20
213 153 BLANC Frederic 01:13:24 V1M 42 00:31:52 00:25:28 - 8,174 07:20
214 334 VASSEUR Sylvain 01:13:28 V1M 43 00:31:56 00:25:32 - 8,167 07:21
215 347 DEHAUDT CHRISTOPHE 01:13:33 V1M 44 00:32:01 00:25:37 - 8,158 07:21
216 80 DAVID sylvain 01:13:36 V2M 20 00:32:04 00:18:53 - 8,152 07:22
217 312 LEDEZ anthony 01:13:40 SEM 104 00:32:08 00:32:08 - 8,145 07:22
218 58 SARRAZIN franck 01:13:41 V1M 45 00:32:09 00:25:45 - 8,143 07:22
219 259 MORELLE simon 01:13:59 SEM 105 00:32:27 00:32:27 - 8,110 07:24
220 8 FOURRIER CECILE 01:14:04 V1F 7 00:32:32 00:13:06 - 8,101 07:24
221 147 THIERCELIN sebastien 01:14:08 V1M 46 00:32:36 00:26:12 SE PAVILLON SOUS BOIS 8,094 07:25
222 238 TRICQUENEAUX tanguy 01:14:21 CAM 4 00:32:49 00:24:02 - 8,070 07:26
223 205 GRESSIER Florence 01:14:30 V1F 8 00:32:58 00:13:32 - 8,054 07:27
224 206 GRESSIER Vincent 01:14:31 V1M 47 00:32:59 00:26:35 - 8,052 07:27
225 165 MARQUIZEAU MARC 01:14:32 V1M 48 00:33:00 00:26:36 ANDRESY ATHLETISME 8,050 07:27
226 374 DJEDAI Sebastien 01:14:35 V1M 49 00:33:03 00:26:39 - 8,045 07:28
227 199 HOUPIN Louis 01:15:17 CAM 5 00:33:45 00:24:58 - 7,970 07:32
228 37 LEFEBVRE Frédéric 01:15:37 V2M 21 00:34:05 00:20:54 Foulées Sainghinoises 7,935 07:34
229 88 DELCOURT THIBAUT 01:15:43 ESM 14 00:34:11 00:33:12 - 7,924 07:34
230 280 MIGNARD flore 01:16:19 CAF 3 00:34:47 00:20:59 - 7,862 07:38
231 2 PINTE SANDRA 01:16:35 SEF 11 00:35:03 00:23:57 - 7,835 07:39
232 125 VANDENBOSSCHE stephane 01:16:36 V1M 50 00:35:04 00:28:40 SE PAVILLON SOUS BOIS 7,833 07:40
233 338 PECQUERAUX Sebastien 01:16:57 V1M 51 00:35:25 00:29:01 THE BAD FROGS 7,797 07:42
234 282 LICTEVOUT sophie 01:17:47 V1F 9 00:36:15 00:16:49 - 7,714 07:47
235 28 OSSART martine 01:17:59 V1F 10 00:36:27 00:17:01 ESPRIT RUN 7,694 07:48
236 16 LOUVET CHRISTOPHE 01:18:02 V2M 22 00:36:30 00:23:19 - 7,689 07:48
237 82 DAVID pauline 01:18:16 SEF 12 00:36:44 00:25:38 - 7,666 07:50
238 144 GOSSELIN Quentin 01:18:16 SEM 106 00:36:44 00:36:44 - 7,666 07:50
239 129 MECHARLE Michel 01:18:23 V2M 23 00:36:51 00:23:40 SE PAVILLON SOUS BOIS 7,655 07:50
240 119 LECONTE Sophie 01:18:25 V1F 11 00:36:53 00:17:27 - 7,651 07:51
241 131 SAINT-GEORGE Didier 01:18:29 V3M 7 00:36:57 00:21:08 - 7,645 07:51
242 166 CALON Nicolas 01:18:37 SEF 13 00:37:05 00:25:59 - 7,632 07:52
243 215 DELIGNY Delphine 01:18:38 SEF 14 00:37:06 00:26:00 - 7,630 07:52
244 271 DELEPLANQUE antoine 01:18:39 V3M 8 00:37:07 00:21:18 - 7,629 07:52
245 204 GOUT Stéphane 01:18:53 SEM 107 00:37:21 00:37:21 - 7,606 07:53
246 246 DUPREZ Christophe 01:19:08 V1M 52 00:37:36 00:31:12 BONNINGUES LES CALAIS ATHLETISME 7,582 07:55
247 247 DUPREZ JEANNE 01:19:08 JUF 1 00:37:36 00:00:00 STADE OLYMPIQUE CALAIS ATHLETISME 7,582 07:55
248 167 GOSSELIN Lennon 01:19:09 ESM 15 00:37:37 00:36:38 - 7,581 07:55
249 262 QUENEHEN joël 01:19:16 V3M 9 00:37:44 00:21:55 - 7,569 07:56
250 71 PETIT Nicolas 01:19:20 SEM 108 00:37:48 00:37:48 - 7,563 07:56
251 106 ALLANO AUDREY 01:19:25 SEF 15 00:37:53 00:26:47 - 7,555 07:57
252 348 SERGENT lucie 01:19:33 SEF 16 00:38:01 00:26:55 - 7,542 07:57
253 51 DUCLOY Sybille 01:19:33 V1F 12 00:38:01 00:18:35 - 7,542 07:57
254 76 DEREUX MICHAEL 01:19:50 V4M 2 00:38:18 00:07:47 - 7,516 07:59
255 224 GOULOIS frederic 01:20:04 SEM 109 00:38:32 00:38:32 - 7,494 08:00
256 274 ELLEBOODE JPierre 01:20:05 V2M 24 00:38:33 00:25:22 - 7,492 08:00
257 186 SKRZYPCZYK olivier 01:20:06 V1M 53 00:38:34 00:32:10 triathlon 7,491 08:01
258 128 THALMANN LUDOVIC 01:20:27 V1M 54 00:38:55 00:32:31 Les Hydros Annecy Triathlon 7,458 08:03
259 127 MORETTE INGRID 01:20:27 V1F 13 00:38:55 00:19:29 Les hydros Annecy Triathlon 7,458 08:03
260 116 DELAHODDE bruno 01:20:43 SEM 110 00:39:11 00:39:11 - 7,433 08:04
261 91 MOURGUES Marie 01:20:44 SEF 17 00:39:12 00:28:06 - 7,432 08:04
262 175 LEBOURG Didier 01:20:51 V1M 55 00:39:19 00:32:55 - 7,421 08:05
263 252 HOUARD Amelie 01:20:59 SEF 18 00:39:27 00:28:21 - 7,409 08:06
264 136 HOUARD Bruno 01:20:59 V2M 25 00:39:27 00:26:16 Dream team weber 7,409 08:06
265 20 HOUPIN isabelle 01:21:01 V1F 14 00:39:29 00:20:03 TOUQUET OPALE ATHLETISME 7,406 08:06
266 42 MENAGER CECILE 01:21:01 SEF 19 00:39:29 00:28:23 TOUQUET OPALE ATHLETISME 7,406 08:06
267 78 DELPLANQUE thierry 01:21:24 V2M 26 00:39:52 00:26:41 - 7,371 08:08
268 307 DEVOLDER Fabien 01:21:59 CAM 6 00:40:27 00:31:40 - 7,319 08:12
269 305 PREUSS ALEXANDRINE 01:21:59 CAF 4 00:40:27 00:26:39 - 7,319 08:12
270 287 WAGRET ALIX 01:21:59 CAF 5 00:40:27 00:26:39 - 7,319 08:12
271 341 LEROY Julie 01:22:24 SEF 20 00:40:52 00:29:46 - 7,282 08:14
272 315 INTILE Philippe 01:22:36 V1M 56 00:41:04 00:34:40 - 7,264 08:16
273 296 HASPESLAGH Patrice 01:22:36 SEM 111 00:41:04 00:41:04 - 7,264 08:16
274 221 MAUREL JULIEN 01:22:41 SEM 112 00:41:09 00:41:09 - 7,257 08:16
275 68 BAYART Thierry 01:22:43 V2M 27 00:41:11 00:28:00 RIO TINTO 7,254 08:16
276 140 ARNAUD Gabrièle 01:22:46 V1F 15 00:41:14 00:21:48 - 7,249 08:17
277 239 CANEL jean-michel 01:22:46 V2M 28 00:41:14 00:28:03 - 7,249 08:17
278 67 MONTEUUIS Corinne 01:22:46 V2F 2 00:41:14 00:11:54 RIO TINTO 7,249 08:17
279 35 MONNIER Julie 01:22:56 SEF 21 00:41:24 00:30:18 Run In Maroilles 7,235 08:18
280 298 GUILLUY ANAIS 01:22:56 SEF 22 00:41:24 00:30:18 - 7,235 08:18
281 72 DURIEZ marie caroline 01:22:58 SEF 23 00:41:26 00:30:20 - 7,232 08:18
282 84 MARECHAL delphine 01:22:58 SEF 24 00:41:26 00:30:20 - 7,232 08:18
283 314 GHEZAL mehdi 01:23:11 SEM 113 00:41:39 00:41:39 - 7,213 08:19
284 269 COULON Sophie 01:23:11 SEF 25 00:41:39 00:30:33 - 7,213 08:19
285 178 LEJOSNE luc 01:23:21 V2M 29 00:41:49 00:28:38 RTRIBE BEAURAINVILLE 7,199 08:20
286 213 DELAIRE vincent 01:23:22 V1M 57 00:41:50 00:35:26 - 7,197 08:20
287 281 LICTEVOUT gautier 01:23:25 V1M 58 00:41:53 00:35:29 - 7,193 08:20
288 291 TOULLET frederic 01:23:50 V2M 30 00:42:18 00:29:07 - 7,157 08:23
289 219 VANPARYS Patrick 01:23:51 V3M 10 00:42:19 00:26:30 COURIR ENSEMBLE SNCF LILLE 7,156 08:23
290 226 WINCKE Rudy 01:23:58 SEM 114 00:42:26 00:42:26 - 7,146 08:24
291 276 LESOT wilfried 01:24:03 V1M 59 00:42:31 00:36:07 - 7,139 08:24
292 179 LEJOSNE catherine 01:24:09 V2F 3 00:42:37 00:13:17 R TRIBE BEAURAINVILLE 7,130 08:25
293 362 DANEL Marie 01:24:14 V1F 16 00:42:42 00:23:16 - 7,123 08:25
294 372 AMOUSSINE David 01:24:23 V1M 60 00:42:51 00:36:27 ATHLETISME CLUB OUTREAU 7,110 08:26
295 357 LAGRAULET benjamin 01:24:27 V1M 61 00:42:55 00:36:31 - 7,105 08:27
296 367 TRONQUOY Anne Fleur 01:24:35 SEF 26 00:43:03 00:31:57 - 7,094 08:27
297 48 KUBACKI Alain 01:24:58 V2M 31 00:43:26 00:30:15 - 7,062 08:30
298 122 BERTOUX Pierre-Yves 01:24:58 V2M 32 00:43:26 00:30:15 - 7,062 08:30
299 46 DACHICOURT emeline 01:25:30 SEF 27 00:43:58 00:32:52 - 7,018 08:33
300 302 SOSA elena 01:25:32 SEF 28 00:44:00 00:32:54 - 7,015 08:33
301 150 KAPUT REYNALD 01:26:01 V1M 62 00:44:29 00:38:05 - 6,975 08:36
302 212 VANDEKERKHOVE gauthier 01:26:02 SEM 115 00:44:30 00:44:30 - 6,974 08:36
303 289 FAUQUEMBERGUE marie 01:26:14 SEF 29 00:44:42 00:33:36 TOUQUET OPALE ATHLETISME 6,958 08:37
304 163 WACOGNE alexandre 01:27:51 SEM 116 00:46:19 00:46:19 - 6,830 08:47
305 17 PIERLAY OLIVIER 01:28:02 V1M 63 00:46:30 00:40:06 LOMME TRIATHLON 6,816 08:48
306 107 RAMET claire 01:28:09 V1F 17 00:46:37 00:27:11 - 6,807 08:49
307 158 CAFFIER corentin 01:28:20 JUM 8 00:46:48 00:43:00 - 6,792 08:50
308 62 FASQUELLE Daniel 01:28:23 V2M 33 00:46:51 00:33:40 - 6,789 08:50
309 277 FANIER basile 01:28:24 SEM 117 00:46:52 00:46:52 - 6,787 08:50
310 355 WASIAK Dorined 01:28:30 V1F 18 00:46:58 00:27:32 - 6,780 08:51
311 349 LAMOUR philippe 01:29:32 V2M 34 00:48:00 00:34:49 - 6,701 08:57
312 101 FOUCAULT catherine 01:31:30 V2F 4 00:49:58 00:20:38 culture danse 6,557 09:09
313 325 BERNARD Juliette 01:32:05 ESF 1 00:50:33 00:00:00 - 6,516 09:13
314 326 GOSSELIN Florine 01:32:05 ESF 2 00:50:33 00:00:00 - 6,516 09:13
315 360 DEMEURE Sabine 01:32:11 V1F 19 00:50:39 00:31:13 - 6,509 09:13
316 324 TASSEZ Laura 01:32:14 ESF 3 00:50:42 00:00:09 - 6,505 09:13
317 15 BOUCLET ingrid 01:32:24 V1F 20 00:50:52 00:31:26 - 6,494 09:14
318 14 LEPRETRE Cedric 01:32:24 SEM 118 00:50:52 00:50:52 - 6,494 09:14
319 304 LE MANAC'H SYLVAIN 01:32:50 V1M 64 00:51:18 00:44:54 - 6,463 09:17
320 321 GALAN Aude 01:32:55 SEF 30 00:51:23 00:40:17 - 6,457 09:18
321 310 SEIGNE Guillaume 01:32:55 SEM 119 00:51:23 00:51:23 - 6,457 09:18
322 323 CIESLAK BRUNO 01:33:47 V2M 35 00:52:15 00:39:04 - 6,398 09:23
323 358 CIESLAK Ines 01:33:47 ESF 4 00:52:15 00:01:42 - 6,398 09:23
324 208 LAVALARD FRANCK 01:33:51 V1M 65 00:52:19 00:45:55 - 6,393 09:23
325 209 TROCHE PATRICK 01:33:51 V1M 66 00:52:19 00:45:55 - 6,393 09:23
326 207 LAVALARD MELANIE 01:33:51 V1F 21 00:52:19 00:32:53 - 6,393 09:23
327 340 HEUZÉ Elodie 01:33:59 SEF 31 00:52:27 00:41:21 - 6,384 09:24
328 339 HEUZÉ Gwenaël 01:33:59 SEF 32 00:52:27 00:41:21 - 6,384 09:24
329 148 VALADE muriel 01:34:03 V1F 22 00:52:31 00:33:05 SE PAVILLON SOUS BOIS 6,380 09:24
330 56 DUSSART Veronique 01:34:10 V1F 23 00:52:38 00:33:12 herlies rando run 6,372 09:25
331 47 GYSELINCK CAROLE 01:34:10 SEF 33 00:52:38 00:41:32 H2R Herlies Rando Run 6,372 09:25
332 126 COLLET Thierry 01:34:10 V2M 36 00:52:38 00:39:27 H2R Herlies Rando Run 6,372 09:25
333 38 BOURIEZ alain 01:34:10 V2M 37 00:52:38 00:39:27 H2R Herlies Rando Run 6,372 09:25
334 195 PETIT pascal 01:34:19 V2M 38 00:52:47 00:39:36 - 6,362 09:26
335 89 DELCOURT Florence 01:34:19 V2F 5 00:52:47 00:23:27 - 6,362 09:26
336 7 VAILLANT TROUILLET MARYSE 01:34:25 V2F 6 00:52:53 00:23:33 - 6,355 09:26
337 97 CARREAU laure 01:34:30 V1F 24 00:52:58 00:33:32 - 6,349 09:27
338 10 LAMY sabine 01:35:40 SEF 34 00:54:08 00:43:02 COURIR A ABBEVILLE 6,272 09:34
339 342 DEMARCQ Alice 01:35:40 SEF 35 00:54:08 00:43:02 COURIR A ABBEVILLE 6,272 09:34
340 108 TOUFFUT Valérie 01:36:13 V1F 25 00:54:41 00:35:15 - 6,236 09:37
341 73 RONDELEZ Marie-Laure 01:36:13 V1F 26 00:54:41 00:35:15 - 6,236 09:37
342 77 LANNOY Pierre 01:36:13 V1M 67 00:54:41 00:48:17 - 6,236 09:37
343 74 LAUTROUS Yannick 01:36:13 V1M 68 00:54:41 00:48:17 - 6,236 09:37
344 253 DUCRET yann 01:36:42 V2M 39 00:55:10 00:41:59 - 6,205 09:40
345 354 BOULANGER Yannicke 01:37:09 V1F 27 00:55:37 00:36:11 - 6,176 09:43
346 180 LEJOSNE henri 01:37:26 ESM 16 00:55:54 00:54:55 R TRIBE BEAURAINVILLE 6,158 09:45
347 181 HAGNERE chloe 01:37:26 ESF 5 00:55:54 00:05:21 - 6,158 09:45
348 356 GOSSELIN Sandrine 01:37:32 V1F 28 00:56:00 00:36:34 - 6,152 09:45
349 133 RAMET LAURENCE 01:37:38 SEF 36 00:56:06 00:45:00 - 6,145 09:46
350 134 TRUPIN Anaïs 01:38:10 CAF 6 00:56:38 00:42:50 - 6,112 09:49
351 132 VASSE marion 01:38:10 CAF 7 00:56:38 00:42:50 - 6,112 09:49
352 265 RAMET FLORIANE 01:38:39 SEF 37 00:57:07 00:46:01 - 6,082 09:52
353 60 FONTAINE HELENE 01:39:28 V1F 29 00:57:56 00:38:30 - 6,032 09:57
354 13 DENIS Jean-Luc 01:39:45 V3M 11 00:58:13 00:42:24 - 6,015 09:59
355 278 LEFEBVRE denise 01:40:22 V3F 1 00:58:50 00:00:00 - 5,978 10:02
356 1 FAIT Philippe 01:40:54 V1M 69 0,04123 0,036782 - 5,9465 0,0070069
357 70 BELLEMBERT Luc 01:54:36 SEM 120 0,05074 0,050741 - 5,2356 0,0079583

Novembre 2017
Lun Mar Mer Jeu Ven Sam Dim
1
2
3
4
5
6
7
8
9
10
11
12
13
14
15
16
17
18
19
20
21
22
23
24
25
27
28
29
30